CheckWX is a tool to help pilots better visualize weather data.  It is not intended as a substitute for an official pre-flight weather briefing.

02:10:19 UTC

LLBG METAR
Ben Gurion International Airport
Tel Aviv, Israel
Current

20 mins ago

LLBG 150150Z VRB02KT 9999 BKN009 23/20 Q1007 NOSIG
Observed
Jul-15 @ 01:50 UTC
Wind
  • Variable at 2 KTS
Visibility
10,000+ meters
Flight Rules
IFR
Cloud Levels
  • Broken at 900' AGL
Temperature
23°C / 73°F
Dewpoint
20°C / 68°F
Humidity
83%
Altimeter
29.73" Hg
Pressure
1006.92 hPa
Previous

50 mins ago

LLBG 150120Z 14004KT 9999 FEW010 23/20 Q1007 TEMPO BKN010
Observed
Jul-15 @ 01:20 UTC
Wind
  • 140° at 4 KTS
Visibility
10,000+ meters
Flight Rules
VFR
Cloud Levels
  • Few at 1,000' AGL
Temperature
23°C / 73°F
Dewpoint
20°C / 68°F
Humidity
83%
Altimeter
29.73" Hg
Pressure
1006.92 hPa
Previous

1 hour ago

LLBG 150050Z 14004KT CAVOK 24/21 Q1007 BECMG SCT012
Observed
Jul-15 @ 00:50 UTC
Wind
  • 140° at 4 KTS
Visibility
10,000+ meters
Flight Rules
VFR
Cloud Levels
  • Clear skies
Temperature
24°C / 75°F
Dewpoint
21°C / 70°F
Humidity
83%
Altimeter
29.73" Hg
Pressure
1006.92 hPa